Battle Point — NMBY — position and weather

sailwx.info

Track history (hours):
 
Tides and Currents Weather Stations Pressure Air Temp Water Temp Dewpoint Dewpoint Depression Visibility Wind Speed Wind Dir Waves Ship Positions

Battle Point

Last reported at 2014-Jul-29 02:29 UTC. Time now 2014-Jul-30 11:12 UTC.
Position N 49°16' W 124°09'.

Length 57 m; draft 3.2 m.

MMSI: 369970254.

Date/timePositionNaut miles runAvg speedWind from/ knotsBaromVisibWave heightAir tempDewpointWater temp
2014-Jul-29 02:29N 49°16' W 124°09'910.1
2014-Jul-29 01:34N 49°15' W 123°55'1110.7
2014-Jul-29 00:34N 49°11' W 123°39'1111.0
2014-Jul-28 23:34N 49°06' W 123°25'1211.6
2014-Jul-28 22:34N 48°59' W 123°11'1110.8
2014-Jul-28 21:34N 48°52' W 122°59'1010.5
2014-Jul-28 20:33N 48°45' W 122°46'9 8.7
2014-Jul-28 19:34N 48°37' W 122°45'8 8.5
2014-Jul-28 18:34N 48°28' W 122°44'9 8.6
2014-Jul-28 17:33N 48°19' W 122°46'1110.3
2014-Jul-28 16:32N 48°09' W 122°43'1212.5
2014-Jul-28 15:33N 47°57' W 122°38'9 9.6
2014-Jul-28 14:33N 47°48' W 122°42'4 4.2
2014-Jul-28 13:33N 47°44' W 122°44'  
2014-Jul-22 22:17N 47°44' W 122°44'4 5.7
2014-Jul-22 21:33N 47°48' W 122°42'9 9.5
2014-Jul-22 20:33N 47°57' W 122°37'8 7.9
2014-Jul-22 19:33N 47°52' W 122°28'9 8.7
2014-Jul-22 18:33N 47°44' W 122°30'5 4.5
2014-Jul-22 17:31N 47°42' W 122°37'2 0.1
2014-Jul-21 22:22N 47°40' W 122°36'7 9.1
2014-Jul-21 21:33N 47°34' W 122°32'0 0.3
2014-Jul-21 20:33N 47°34' W 122°32'0 0.0
2014-Jul-21 20:18N 47°34' W 122°32'0 0.0
2014-Jul-21 19:33N 47°34' W 122°32'0 0.0
2014-Jul-21 18:33N 47°34' W 122°32'0 0.0
2014-Jul-21 17:33N 47°34' W 122°32'0 0.0
2014-Jul-21 16:33N 47°34' W 122°32'0 0.0
2014-Jul-21 15:33N 47°34' W 122°32'4 3.8
2014-Jul-21 14:33N 47°37' W 122°35'  
Track history (hours):
 
Tides and Currents Weather Stations Pressure Air Temp Water Temp Dewpoint Dewpoint Depression Visibility Wind Speed Wind Dir Waves Ship Positions

Battle Point

Last reported at 2014-Jul-29 02:29 UTC. Time now 2014-Jul-30 11:12 UTC.
Position N 49°16' W 124°09'.

Length 57 m; draft 3.2 m.

MMSI: 369970254.

Date/timePositionNaut miles runAvg speedWind from/ knotsBaromVisibWave heightAir tempDewpointWater temp
2014-Jul-29 02:29N 49°16' W 124°09'910.1
2014-Jul-29 01:34N 49°15' W 123°55'1110.7
2014-Jul-29 00:34N 49°11' W 123°39'1111.0
2014-Jul-28 23:34N 49°06' W 123°25'1211.6
2014-Jul-28 22:34N 48°59' W 123°11'1110.8
2014-Jul-28 21:34N 48°52' W 122°59'1010.5
2014-Jul-28 20:33N 48°45' W 122°46'9 8.7
2014-Jul-28 19:34N 48°37' W 122°45'8 8.5
2014-Jul-28 18:34N 48°28' W 122°44'9 8.6
2014-Jul-28 17:33N 48°19' W 122°46'1110.3
2014-Jul-28 16:32N 48°09' W 122°43'1212.5
2014-Jul-28 15:33N 47°57' W 122°38'9 9.6
2014-Jul-28 14:33N 47°48' W 122°42'4 4.2
2014-Jul-28 13:33N 47°44' W 122°44'  
2014-Jul-22 22:17N 47°44' W 122°44'4 5.7
2014-Jul-22 21:33N 47°48' W 122°42'9 9.5
2014-Jul-22 20:33N 47°57' W 122°37'8 7.9
2014-Jul-22 19:33N 47°52' W 122°28'9 8.7
2014-Jul-22 18:33N 47°44' W 122°30'5 4.5
2014-Jul-22 17:31N 47°42' W 122°37'2 0.1
2014-Jul-21 22:22N 47°40' W 122°36'7 9.1
2014-Jul-21 21:33N 47°34' W 122°32'0 0.3
2014-Jul-21 20:33N 47°34' W 122°32'0 0.0
2014-Jul-21 20:18N 47°34' W 122°32'0 0.0
2014-Jul-21 19:33N 47°34' W 122°32'0 0.0
2014-Jul-21 18:33N 47°34' W 122°32'0 0.0
2014-Jul-21 17:33N 47°34' W 122°32'0 0.0
2014-Jul-21 16:33N 47°34' W 122°32'0 0.0
2014-Jul-21 15:33N 47°34' W 122°32'4 3.8
2014-Jul-21 14:33N 47°37' W 122°35'  

Dump ship's entire track history